createdAt,value
2023-03-07T00:00:35.562Z,13.21
2023-03-07T00:01:38.261Z,34.98
2023-03-07T00:02:41.334Z,19.54
2023-03-07T00:03:44.664Z,27.29
2023-03-07T00:05:59.427Z,11.15
2023-03-07T00:07:08.534Z,27.88
2023-03-07T00:08:11.834Z,15.42
2023-03-07T00:09:22.497Z,11.72
2023-03-07T00:10:25.880Z,10.03
2023-03-07T00:11:29.129Z,10.25
2023-03-07T00:12:31.816Z,24.93
2023-03-07T00:13:34.103Z,12.77
2023-03-07T00:14:37.017Z,15.89
2023-03-07T00:15:40.119Z,13.05
2023-03-07T00:16:43.840Z,22.16
2023-03-07T00:17:46.986Z,14.05
2023-03-07T00:18:50.677Z,10.56
2023-03-07T00:19:53.996Z,12.03
2023-03-07T00:20:57.268Z,11.82
2023-03-07T00:21:59.862Z,14.06
2023-03-07T00:23:03.226Z,8.98
2023-03-07T00:24:06.820Z,10.28
2023-03-07T00:25:10.249Z,12.44
2023-03-07T00:26:13.508Z,10.41
2023-03-07T00:27:17.129Z,14.51
2023-03-07T00:28:20.473Z,14.45
2023-03-07T00:29:23.740Z,12.48
2023-03-07T00:30:27.242Z,12.90
2023-03-07T00:31:30.365Z,39.38
2023-03-07T00:32:33.876Z,19.10
2023-03-07T00:33:37.803Z,25.49
2023-03-07T00:34:41.247Z,22.75
2023-03-07T00:35:44.694Z,32.39
2023-03-07T00:36:48.409Z,39.36
2023-03-07T00:37:51.739Z,26.20
2023-03-07T00:39:02.713Z,19.32
2023-03-07T00:40:06.014Z,9.80
2023-03-07T00:41:10.460Z,6.75
2023-03-07T00:42:13.847Z,10.54
2023-03-07T00:43:17.260Z,11.19
2023-03-07T00:44:27.317Z,10.67
2023-03-07T00:45:30.852Z,9.72
2023-03-07T00:46:34.016Z,12.77
2023-03-07T00:47:36.969Z,34.53
2023-03-07T00:48:40.040Z,30.84
2023-03-07T00:49:42.825Z,9.34
2023-03-07T00:50:45.930Z,11.94
2023-03-07T00:51:49.279Z,9.50
2023-03-07T00:52:54.085Z,13.14
2023-03-07T00:53:57.430Z,14.18
2023-03-07T00:55:01.220Z,16.70
2023-03-07T00:56:04.707Z,21.63
2023-03-07T00:57:08.168Z,17.76
2023-03-07T00:58:15.186Z,10.64
2023-03-07T00:59:22.058Z,23.96
2023-03-07T01:00:25.257Z,33.22
2023-03-07T01:01:29.159Z,20.32
2023-03-07T01:02:32.686Z,13.38
2023-03-07T01:03:35.885Z,24.56
2023-03-07T01:04:38.990Z,30.12
2023-03-07T01:05:42.208Z,16.75
2023-03-07T01:06:57.738Z,10.39
2023-03-07T01:08:03.737Z,11.14
2023-03-07T01:09:07.044Z,11.87
2023-03-07T01:10:10.062Z,13.53
2023-03-07T01:11:13.540Z,22.61
2023-03-07T01:12:16.790Z,32.24
2023-03-07T01:13:21.492Z,20.14
2023-03-07T01:14:24.892Z,14.14
2023-03-07T01:15:32.219Z,13.86
2023-03-07T01:16:35.825Z,11.49
2023-03-07T01:17:40.341Z,12.02
2023-03-07T01:18:43.820Z,16.16
2023-03-07T01:19:47.384Z,33.37
2023-03-07T01:20:50.573Z,22.21
2023-03-07T01:21:53.613Z,18.33
2023-03-07T01:22:58.611Z,15.28
2023-03-07T01:24:02.103Z,24.56
2023-03-07T01:25:05.397Z,11.81
2023-03-07T01:26:08.974Z,40.02
2023-03-07T01:27:12.322Z,18.40
2023-03-07T01:28:18.536Z,35.25
2023-03-07T01:29:24.044Z,26.42
2023-03-07T01:30:27.500Z,23.77
2023-03-07T01:31:31.256Z,59.09
2023-03-07T01:32:37.750Z,25.39
2023-03-07T01:33:41.235Z,15.83
2023-03-07T01:34:47.078Z,14.37
2023-03-07T01:35:50.482Z,27.79
2023-03-07T01:36:54.784Z,22.20
2023-03-07T01:37:58.317Z,15.63
2023-03-07T01:39:01.710Z,11.25
2023-03-07T01:40:04.903Z,21.35
2023-03-07T01:41:08.196Z,13.43
2023-03-07T01:42:13.060Z,12.04
2023-03-07T01:43:16.281Z,15.02
2023-03-07T01:44:19.321Z,18.10
2023-03-07T01:45:22.418Z,8.18
2023-03-07T01:46:25.722Z,10.63
2023-03-07T01:47:29.318Z,15.30
2023-03-07T01:48:34.833Z,13.49
2023-03-07T01:49:38.216Z,9.77
2023-03-07T01:50:50.003Z,16.52
2023-03-07T01:51:53.221Z,16.66
2023-03-07T01:53:03.595Z,17.42
2023-03-07T01:54:06.930Z,22.55
2023-03-07T01:55:10.357Z,18.09
2023-03-07T01:56:13.633Z,10.74
2023-03-07T01:57:16.679Z,16.94
2023-03-07T01:58:20.347Z,7.52
2023-03-07T01:59:23.887Z,10.35
2023-03-07T02:00:27.236Z,10.72
2023-03-07T02:01:30.702Z,12.68
2023-03-07T02:02:34.745Z,11.86
2023-03-07T02:03:39.317Z,17.98
2023-03-07T02:04:42.636Z,11.03
2023-03-07T02:05:45.585Z,10.61
2023-03-07T02:06:48.891Z,14.55
2023-03-07T02:07:52.536Z,10.48
2023-03-07T02:08:55.885Z,11.78
2023-03-07T02:10:02.352Z,14.12
2023-03-07T02:11:17.515Z,9.86
2023-03-07T02:12:23.039Z,13.03
2023-03-07T02:13:25.340Z,9.55
2023-03-07T02:14:28.427Z,10.54
2023-03-07T02:15:39.212Z,12.32
2023-03-07T02:16:45.548Z,27.99
2023-03-07T02:17:48.804Z,21.64
2023-03-07T02:18:51.556Z,10.77
2023-03-07T02:19:55.271Z,9.22
2023-03-07T02:20:58.404Z,11.21
2023-03-07T02:22:02.046Z,10.74
2023-03-07T02:23:05.225Z,11.88
2023-03-07T02:24:08.222Z,11.57
2023-03-07T02:25:11.294Z,11.92
2023-03-07T02:26:14.539Z,13.62
2023-03-07T02:27:18.057Z,14.05
2023-03-07T02:28:21.425Z,16.62
2023-03-07T02:29:24.237Z,16.25
2023-03-07T02:30:27.039Z,10.70
2023-03-07T02:31:30.404Z,10.79
2023-03-07T02:32:33.540Z,20.17
2023-03-07T02:33:36.619Z,35.75
2023-03-07T02:34:40.007Z,8.75
2023-03-07T02:35:43.244Z,12.72
2023-03-07T02:36:46.454Z,13.47
2023-03-07T02:37:49.636Z,16.52
2023-03-07T02:38:52.202Z,10.76
2023-03-07T02:39:58.825Z,22.68
2023-03-07T02:41:03.288Z,12.92
2023-03-07T02:42:08.351Z,15.29
2023-03-07T02:43:11.670Z,26.94
2023-03-07T02:44:15.301Z,8.42
2023-03-07T02:45:18.715Z,14.10
2023-03-07T02:46:22.098Z,25.25
2023-03-07T02:47:25.171Z,16.99
2023-03-07T02:48:35.495Z,11.15
2023-03-07T02:49:38.753Z,12.96
2023-03-07T02:50:41.672Z,13.01
2023-03-07T02:51:44.751Z,9.83
2023-03-07T02:52:48.248Z,11.35
2023-03-07T02:53:51.606Z,8.12
2023-03-07T02:54:57.054Z,10.44
2023-03-07T02:56:00.466Z,12.78
2023-03-07T02:57:03.893Z,20.45
2023-03-07T02:58:06.998Z,9.75
2023-03-07T02:59:09.980Z,20.67
2023-03-07T03:00:15.340Z,15.42
2023-03-07T03:01:18.388Z,36.92
2023-03-07T03:02:21.395Z,14.79
2023-03-07T03:03:24.787Z,15.97
2023-03-07T03:04:28.170Z,13.84
2023-03-07T03:05:34.210Z,13.84
2023-03-07T03:06:36.834Z,13.57
2023-03-07T03:07:40.222Z,11.32
2023-03-07T03:08:43.199Z,10.31
2023-03-07T03:09:46.574Z,12.52
2023-03-07T03:10:49.714Z,8.00
2023-03-07T03:11:53.260Z,7.04
2023-03-07T03:12:56.781Z,7.89
2023-03-07T03:13:59.921Z,8.84
2023-03-07T03:15:04.582Z,5.25
2023-03-07T03:16:07.854Z,6.67
2023-03-07T03:17:10.992Z,5.78
2023-03-07T03:18:14.204Z,7.39
2023-03-07T03:19:22.620Z,7.94
2023-03-07T03:20:25.459Z,11.62
2023-03-07T03:21:28.053Z,14.62
2023-03-07T03:22:30.704Z,10.21
2023-03-07T03:23:33.809Z,11.72
2023-03-07T03:24:36.993Z,8.74
2023-03-07T03:25:40.310Z,8.90
2023-03-07T03:26:42.635Z,10.60
2023-03-07T03:27:46.715Z,9.78
2023-03-07T03:28:50.143Z,9.70
2023-03-07T03:29:53.823Z,8.74
2023-03-07T03:30:57.287Z,9.10
2023-03-07T03:32:00.451Z,10.18
2023-03-07T03:33:03.373Z,7.99
2023-03-07T03:34:06.851Z,10.73
2023-03-07T03:35:10.198Z,8.79
2023-03-07T03:36:13.575Z,8.94
2023-03-07T03:37:16.362Z,9.88
2023-03-07T03:38:19.040Z,10.82
2023-03-07T03:39:22.231Z,11.28
2023-03-07T03:40:25.703Z,8.96
2023-03-07T03:41:28.697Z,12.68
2023-03-07T03:42:32.753Z,10.30
2023-03-07T03:43:36.004Z,10.61
2023-03-07T03:44:39.211Z,12.12
2023-03-07T03:45:42.329Z,8.66
2023-03-07T03:46:45.103Z,10.17
2023-03-07T03:47:48.664Z,8.49
2023-03-07T03:48:51.997Z,6.59
2023-03-07T03:49:55.296Z,6.17
2023-03-07T03:53:23.214Z,9.25
2023-03-07T03:54:26.580Z,8.84
2023-03-07T03:55:30.004Z,6.79
2023-03-07T03:56:33.264Z,8.79
2023-03-07T03:57:35.989Z,9.78
2023-03-07T03:59:54.485Z,7.25
2023-03-07T04:00:57.084Z,9.61
2023-03-07T04:02:00.769Z,9.08
2023-03-07T04:03:06.199Z,8.03
2023-03-07T04:04:09.851Z,8.70
2023-03-07T04:05:13.251Z,7.76
2023-03-07T04:06:16.369Z,7.96
2023-03-07T04:07:19.497Z,8.02
2023-03-07T04:08:25.887Z,9.05
2023-03-07T04:09:29.077Z,8.55
2023-03-07T04:10:32.314Z,10.52
2023-03-07T04:11:42.656Z,8.99
2023-03-07T04:12:45.962Z,7.29
2023-03-07T04:13:48.998Z,8.15
2023-03-07T04:14:55.786Z,8.26
2023-03-07T04:15:58.624Z,7.93
2023-03-07T04:17:05.052Z,8.47
2023-03-07T04:18:08.002Z,7.78
2023-03-07T04:19:10.802Z,9.42
2023-03-07T04:20:13.942Z,7.83
2023-03-07T04:21:16.923Z,8.22
2023-03-07T04:22:21.239Z,7.47
2023-03-07T04:23:24.350Z,7.77
2023-03-07T04:24:27.611Z,6.77
2023-03-07T04:25:30.495Z,8.78
2023-03-07T04:26:33.784Z,8.49
2023-03-07T04:27:36.973Z,9.78
2023-03-07T04:28:39.251Z,6.19
2023-03-07T04:29:42.180Z,7.59
2023-03-07T04:30:45.337Z,7.33
2023-03-07T04:31:47.984Z,10.07
2023-03-07T04:32:50.979Z,8.06
2023-03-07T04:33:56.587Z,7.98
2023-03-07T04:35:01.877Z,9.66
2023-03-07T04:36:05.213Z,8.52
2023-03-07T04:37:08.483Z,5.84
2023-03-07T04:38:11.644Z,8.41
2023-03-07T04:39:14.301Z,7.75
2023-03-07T04:40:16.951Z,9.84
2023-03-07T04:41:19.299Z,12.67
2023-03-07T04:42:21.461Z,10.48
2023-03-07T04:43:23.671Z,10.20
2023-03-07T04:45:33.200Z,8.01
2023-03-07T04:46:35.402Z,8.24
2023-03-07T04:47:37.691Z,7.18
2023-03-07T04:48:40.236Z,6.41
2023-03-07T04:50:58.650Z,9.38
2023-03-07T04:52:01.058Z,10.78
2023-03-07T04:53:03.749Z,8.45
2023-03-07T04:54:06.408Z,8.80
2023-03-07T04:55:08.975Z,7.88
2023-03-07T04:56:11.428Z,9.12
2023-03-07T04:57:13.596Z,6.88
2023-03-07T04:58:15.782Z,10.13
2023-03-07T04:59:19.830Z,11.53
2023-03-07T05:00:22.602Z,8.09
2023-03-07T05:01:25.119Z,7.92
2023-03-07T05:02:27.749Z,8.33
2023-03-07T05:03:30.198Z,8.58
2023-03-07T05:04:32.969Z,7.06
2023-03-07T05:05:37.495Z,8.65
2023-03-07T05:06:39.102Z,8.96
2023-03-07T05:07:41.286Z,9.48
2023-03-07T05:08:43.481Z,9.40
2023-03-07T05:09:46.139Z,8.12
2023-03-07T05:10:48.637Z,8.12
2023-03-07T05:11:53.501Z,9.31
2023-03-07T05:12:54.773Z,10.22
2023-03-07T05:13:56.924Z,7.93
2023-03-07T05:14:59.574Z,9.49
2023-03-07T05:16:02.154Z,8.89
2023-03-07T05:17:04.891Z,7.17
2023-03-07T05:18:07.363Z,10.61
2023-03-07T05:20:26.062Z,9.37
2023-03-07T05:21:28.298Z,8.61
2023-03-07T05:22:30.898Z,9.42
2023-03-07T05:23:33.617Z,7.78
2023-03-07T05:24:36.083Z,8.13
2023-03-07T05:25:38.535Z,7.18
2023-03-07T05:26:41.055Z,8.55
2023-03-07T05:27:43.486Z,8.28
2023-03-07T05:28:45.915Z,5.73
2023-03-07T05:29:51.047Z,7.12
2023-03-07T05:30:53.900Z,9.92
2023-03-07T05:31:56.174Z,9.04
2023-03-07T05:32:58.610Z,12.52
2023-03-07T05:34:01.122Z,6.93
2023-03-07T05:35:03.536Z,9.28
2023-03-07T05:36:05.782Z,9.79
2023-03-07T05:37:08.226Z,8.78
2023-03-07T05:38:10.419Z,8.01
2023-03-07T05:39:12.614Z,9.57
2023-03-07T05:40:14.859Z,7.81
2023-03-07T05:41:17.130Z,6.95
2023-03-07T05:42:19.679Z,7.69
2023-03-07T05:43:22.083Z,8.92
2023-03-07T05:44:24.517Z,9.46
2023-03-07T05:45:26.735Z,6.35
2023-03-07T05:46:29.274Z,7.90
2023-03-07T05:47:31.537Z,7.23
2023-03-07T05:48:33.709Z,9.44
2023-03-07T05:49:38.443Z,8.98
2023-03-07T05:50:40.928Z,6.40
2023-03-07T05:51:44.463Z,6.29
2023-03-07T05:52:46.866Z,6.93
2023-03-07T05:53:49.148Z,7.75
2023-03-07T05:54:51.622Z,6.88
2023-03-07T05:55:54.132Z,6.18
2023-03-07T05:56:56.826Z,7.15
2023-03-07T05:57:59.248Z,8.38
2023-03-07T05:59:01.838Z,7.67
2023-03-07T06:00:04.320Z,7.03
2023-03-07T06:01:06.502Z,6.47
2023-03-07T06:02:13.979Z,6.91
2023-03-07T06:03:16.526Z,8.70
2023-03-07T06:04:19.003Z,7.17
2023-03-07T06:05:22.524Z,7.41
2023-03-07T06:06:25.595Z,6.32
2023-03-07T06:07:28.972Z,8.75
2023-03-07T06:08:31.190Z,12.28
2023-03-07T06:09:33.397Z,8.36
2023-03-07T06:10:35.605Z,7.81
2023-03-07T06:11:37.810Z,6.58
2023-03-07T06:12:40.232Z,8.16
2023-03-07T06:13:42.432Z,6.91
2023-03-07T06:14:44.806Z,8.51
2023-03-07T06:15:52.260Z,9.11
2023-03-07T06:16:54.907Z,9.67
2023-03-07T06:17:57.121Z,9.22
2023-03-07T06:18:59.465Z,6.83
2023-03-07T06:20:01.679Z,9.00
2023-03-07T06:21:04.172Z,9.78
2023-03-07T06:22:06.629Z,8.97
2023-03-07T06:23:09.198Z,9.39
2023-03-07T06:24:11.404Z,8.49
2023-03-07T06:25:18.741Z,7.15
2023-03-07T06:26:21.214Z,8.17
2023-03-07T06:27:23.387Z,9.68
2023-03-07T06:28:27.300Z,10.13
2023-03-07T06:29:29.588Z,6.94
2023-03-07T06:31:39.554Z,9.13
2023-03-07T06:32:41.855Z,9.12
2023-03-07T06:33:44.283Z,10.18
2023-03-07T06:34:47.635Z,8.65
2023-03-07T06:35:50.080Z,7.06
2023-03-07T06:38:05.061Z,10.31
2023-03-07T06:39:07.303Z,9.10
2023-03-07T06:40:09.702Z,9.70
2023-03-07T06:41:12.159Z,10.77
2023-03-07T06:42:14.493Z,9.44
2023-03-07T06:43:16.754Z,9.92
2023-03-07T06:44:19.273Z,11.43
2023-03-07T06:45:21.697Z,11.31
2023-03-07T06:46:23.961Z,8.46
2023-03-07T06:47:26.390Z,12.12
2023-03-07T06:48:28.670Z,9.67
2023-03-07T06:49:31.119Z,9.78
2023-03-07T06:50:35.742Z,12.15
2023-03-07T06:51:38.043Z,9.31
2023-03-07T06:52:41.824Z,12.12
2023-03-07T06:53:44.323Z,13.95
2023-03-07T06:54:46.880Z,12.29
2023-03-07T06:55:49.419Z,8.97
2023-03-07T06:56:51.864Z,11.45
2023-03-07T06:57:54.260Z,12.66
2023-03-07T06:58:56.688Z,11.83
2023-03-07T06:59:59.416Z,11.99
2023-03-07T07:01:01.761Z,12.92
2023-03-07T07:02:04.419Z,12.63
2023-03-07T07:03:07.181Z,11.78
2023-03-07T07:05:25.692Z,11.90
2023-03-07T07:06:28.256Z,14.45
2023-03-07T07:07:30.613Z,13.31
2023-03-07T07:08:33.096Z,13.04
2023-03-07T07:09:35.360Z,10.43
2023-03-07T07:10:37.852Z,11.85
2023-03-07T07:11:42.974Z,13.28
2023-03-07T07:12:45.281Z,17.86
2023-03-07T07:13:47.472Z,17.47
2023-03-07T07:14:49.882Z,14.46
2023-03-07T07:15:52.381Z,13.68
2023-03-07T07:16:54.845Z,15.15
2023-03-07T07:17:57.051Z,13.23
2023-03-07T07:18:59.257Z,15.98
2023-03-07T07:20:01.479Z,16.28
2023-03-07T07:21:04.051Z,17.87
2023-03-07T07:22:06.421Z,18.72
2023-03-07T07:23:08.830Z,18.17
2023-03-07T07:24:11.044Z,18.88
2023-03-07T07:25:13.512Z,19.83
2023-03-07T07:26:16.180Z,19.34
2023-03-07T07:27:18.428Z,19.58
2023-03-07T07:28:20.678Z,16.91
2023-03-07T07:29:22.969Z,16.26
2023-03-07T07:30:25.640Z,18.12
2023-03-07T07:31:27.960Z,17.82
2023-03-07T07:32:46.949Z,16.31
2023-03-07T07:33:49.214Z,18.88
2023-03-07T07:34:51.639Z,19.78
2023-03-07T07:35:54.137Z,21.47
2023-03-07T07:36:56.833Z,19.59
2023-03-07T07:37:59.359Z,20.14
2023-03-07T07:39:04.197Z,19.12
2023-03-07T07:40:06.622Z,20.44
2023-03-07T07:41:08.899Z,21.75
2023-03-07T07:42:11.880Z,20.43
2023-03-07T07:43:14.368Z,20.97
2023-03-07T07:44:16.980Z,19.34
2023-03-07T07:45:19.239Z,23.90
2023-03-07T07:46:21.779Z,20.87
2023-03-07T07:47:24.226Z,20.84
2023-03-07T07:48:26.535Z,21.35
2023-03-07T07:49:28.816Z,22.34
2023-03-07T07:50:31.235Z,19.78
2023-03-07T07:51:33.561Z,23.07
2023-03-07T07:52:35.806Z,26.21
2023-03-07T07:53:37.983Z,25.22
2023-03-07T07:54:40.487Z,24.57
2023-03-07T07:55:42.946Z,27.38
2023-03-07T07:56:45.126Z,23.71
2023-03-07T07:57:47.592Z,23.57
2023-03-07T07:58:49.793Z,25.92
2023-03-07T07:59:52.284Z,29.77
2023-03-07T08:00:54.710Z,24.74
2023-03-07T08:01:56.974Z,26.73
2023-03-07T08:02:59.671Z,30.31
2023-03-07T08:04:01.917Z,22.85
2023-03-07T08:05:04.384Z,28.16
2023-03-07T08:07:22.324Z,26.23
2023-03-07T08:08:24.759Z,27.75
2023-03-07T08:09:29.614Z,24.17
2023-03-07T08:10:31.942Z,30.31
2023-03-07T08:11:34.231Z,26.74
2023-03-07T08:12:36.550Z,25.81
2023-03-07T08:13:39.025Z,24.96
2023-03-07T08:14:41.204Z,22.75
2023-03-07T08:15:43.703Z,28.40
2023-03-07T08:16:46.162Z,32.18
2023-03-07T08:17:48.853Z,29.15
2023-03-07T08:18:51.309Z,27.68
2023-03-07T08:19:53.490Z,28.09
2023-03-07T08:20:55.677Z,27.82
2023-03-07T08:21:57.901Z,30.43
2023-03-07T08:23:00.380Z,31.26
2023-03-07T08:24:02.887Z,29.90
2023-03-07T08:25:05.402Z,30.03
2023-03-07T08:26:08.804Z,26.14
2023-03-07T08:27:11.223Z,30.14
2023-03-07T08:28:13.635Z,36.02
2023-03-07T08:29:19.403Z,33.38
2023-03-07T08:30:21.847Z,33.79
2023-03-07T08:31:24.151Z,33.53
2023-03-07T08:32:26.473Z,38.59
2023-03-07T08:33:29.217Z,31.42
2023-03-07T08:34:31.855Z,37.55
2023-03-07T08:35:34.401Z,35.15
2023-03-07T08:36:36.831Z,30.47
2023-03-07T08:37:39.088Z,34.09
2023-03-07T08:38:50.703Z,34.92
2023-03-07T08:39:54.571Z,33.84
2023-03-07T08:40:57.041Z,34.36
2023-03-07T08:41:59.570Z,35.98
2023-03-07T08:43:01.760Z,33.27
2023-03-07T08:44:05.104Z,34.19
2023-03-07T08:45:07.780Z,33.57
2023-03-07T08:46:10.056Z,35.77
2023-03-07T08:47:12.487Z,37.18
2023-03-07T08:48:14.676Z,33.78
2023-03-07T08:49:16.888Z,38.33
2023-03-07T08:50:19.391Z,33.31
2023-03-07T08:51:21.841Z,35.72
2023-03-07T08:52:24.118Z,35.13
2023-03-07T08:53:26.566Z,36.54
2023-03-07T08:54:28.796Z,33.81
2023-03-07T08:55:31.057Z,31.02
2023-03-07T08:57:48.992Z,40.82
2023-03-07T08:58:51.174Z,46.69
2023-03-07T08:59:53.355Z,35.77
2023-03-07T09:00:55.952Z,37.59
2023-03-07T09:01:58.437Z,37.08
2023-03-07T09:03:00.667Z,39.89
2023-03-07T09:04:02.859Z,37.30
2023-03-07T09:05:05.528Z,37.31
2023-03-07T09:06:07.824Z,40.53
2023-03-07T09:07:10.216Z,30.94
2023-03-07T09:08:12.454Z,33.91
2023-03-07T09:09:14.833Z,34.71
2023-03-07T09:10:17.127Z,39.35
2023-03-07T09:11:19.618Z,39.05
2023-03-07T09:12:21.838Z,39.12
2023-03-07T09:13:23.987Z,40.99
2023-03-07T09:14:26.191Z,41.66
2023-03-07T09:15:28.398Z,38.22
2023-03-07T09:16:30.998Z,39.35
2023-03-07T09:17:33.530Z,35.55
2023-03-07T09:18:35.762Z,34.10
2023-03-07T09:19:38.010Z,42.94
2023-03-07T09:20:40.348Z,33.92
2023-03-07T09:22:50.445Z,38.74
2023-03-07T09:25:08.360Z,40.24
2023-03-07T09:28:42.595Z,36.90
2023-03-07T09:29:44.785Z,40.30
2023-03-07T09:30:46.964Z,36.98
2023-03-07T09:31:52.223Z,37.43
2023-03-07T09:32:54.672Z,32.90
2023-03-07T09:33:57.115Z,35.79
2023-03-07T09:34:59.352Z,42.65
2023-03-07T09:36:01.607Z,39.97
2023-03-07T09:37:03.900Z,36.82
2023-03-07T09:38:06.405Z,37.90
2023-03-07T09:39:08.596Z,40.24
2023-03-07T09:40:10.859Z,40.64
2023-03-07T09:41:13.071Z,42.14
2023-03-07T09:42:16.882Z,35.07
2023-03-07T09:43:19.203Z,33.64
2023-03-07T09:44:21.605Z,42.52
2023-03-07T09:45:23.907Z,36.27
2023-03-07T09:46:27.804Z,38.78
2023-03-07T09:47:30.033Z,41.57
2023-03-07T09:48:32.787Z,41.75
2023-03-07T09:49:35.188Z,42.44
2023-03-07T09:50:37.467Z,38.09
2023-03-07T09:51:39.723Z,38.33
2023-03-07T09:52:42.186Z,38.29
2023-03-07T09:53:45.030Z,39.08
2023-03-07T09:54:48.928Z,43.19
2023-03-07T09:55:51.128Z,43.30
2023-03-07T09:56:53.311Z,39.74
2023-03-07T09:57:55.603Z,41.98
2023-03-07T09:58:58.019Z,34.91
2023-03-07T10:00:00.487Z,40.31
2023-03-07T10:01:02.713Z,41.20
2023-03-07T10:02:04.912Z,43.78
2023-03-07T10:03:07.306Z,41.17
2023-03-07T10:04:09.887Z,45.92
2023-03-07T10:05:12.288Z,43.08
2023-03-07T10:06:14.798Z,36.92
2023-03-07T10:07:22.111Z,46.05
2023-03-07T10:08:24.307Z,43.13
2023-03-07T10:09:26.902Z,40.51
2023-03-07T10:10:29.086Z,49.17
2023-03-07T10:11:31.743Z,39.18
2023-03-07T10:12:34.052Z,37.67
2023-03-07T10:13:36.354Z,43.22
2023-03-07T10:14:38.600Z,43.00
2023-03-07T10:15:41.142Z,44.54
2023-03-07T10:16:43.465Z,40.02
2023-03-07T10:17:45.965Z,40.02
2023-03-07T10:18:48.357Z,43.15
2023-03-07T10:19:50.881Z,44.08
2023-03-07T10:20:53.283Z,47.03
2023-03-07T10:21:56.070Z,44.20
2023-03-07T10:22:58.256Z,42.07
2023-03-07T10:24:00.782Z,44.29
2023-03-07T10:25:03.018Z,49.36
2023-03-07T10:26:05.256Z,42.03
2023-03-07T10:27:07.470Z,46.77
2023-03-07T10:28:09.876Z,38.03
2023-03-07T10:29:12.117Z,42.82
2023-03-07T10:30:14.531Z,43.51
2023-03-07T10:31:16.876Z,39.40
2023-03-07T10:32:19.124Z,42.44
2023-03-07T10:33:26.097Z,40.93
2023-03-07T10:34:30.152Z,40.61
2023-03-07T10:35:32.201Z,38.29
2023-03-07T10:36:34.640Z,42.93
2023-03-07T10:37:36.982Z,34.79
2023-03-07T10:38:40.476Z,37.78
2023-03-07T10:39:42.900Z,38.51
2023-03-07T10:40:48.848Z,36.85
2023-03-07T10:41:51.578Z,32.29
2023-03-07T10:42:53.789Z,33.99
2023-03-07T10:43:55.986Z,32.65
2023-03-07T10:44:58.281Z,33.10
2023-03-07T10:46:00.752Z,38.49
2023-03-07T10:47:03.247Z,41.47
2023-03-07T10:48:05.708Z,36.38
2023-03-07T10:49:10.669Z,44.56
2023-03-07T10:50:13.158Z,35.96
2023-03-07T10:51:15.801Z,31.82
2023-03-07T10:52:17.993Z,33.04
2023-03-07T10:53:20.507Z,35.93
2023-03-07T10:54:22.697Z,36.74
2023-03-07T10:55:25.160Z,34.47
2023-03-07T10:56:27.452Z,32.98
2023-03-07T10:57:29.944Z,31.64
2023-03-07T10:58:33.626Z,32.92
2023-03-07T10:59:35.866Z,37.53
2023-03-07T11:00:38.398Z,37.64
2023-03-07T11:01:40.863Z,34.52
2023-03-07T11:02:43.328Z,40.20
2023-03-07T11:03:53.273Z,31.79
2023-03-07T11:04:49.471Z,36.91
2023-03-07T11:05:52.213Z,41.39
2023-03-07T11:06:54.667Z,30.75
2023-03-07T11:07:58.876Z,30.93
2023-03-07T11:09:02.116Z,33.58
2023-03-07T11:10:05.237Z,33.74
2023-03-07T11:11:07.537Z,31.04
2023-03-07T11:12:10.031Z,35.27
2023-03-07T11:13:12.292Z,37.08
2023-03-07T11:14:16.145Z,34.77
2023-03-07T11:15:18.651Z,36.66
2023-03-07T11:17:36.963Z,32.91
2023-03-07T11:18:39.465Z,29.43
2023-03-07T11:19:41.657Z,36.07
2023-03-07T11:20:44.159Z,33.52
2023-03-07T11:21:46.720Z,33.77
2023-03-07T11:22:49.481Z,33.90
2023-03-07T11:23:53.201Z,37.58
2023-03-07T11:25:04.894Z,35.05
2023-03-07T11:26:07.674Z,33.00
2023-03-07T11:27:10.125Z,35.55
2023-03-07T11:28:12.789Z,34.79
2023-03-07T11:29:16.384Z,33.80
2023-03-07T11:30:18.951Z,43.22
2023-03-07T11:31:21.693Z,35.25
2023-03-07T11:32:24.362Z,31.96
2023-03-07T11:33:27.285Z,33.48
2023-03-07T11:34:30.044Z,32.52
2023-03-07T11:35:32.780Z,33.48
2023-03-07T11:36:35.602Z,33.14
2023-03-07T11:37:38.497Z,32.28
2023-03-07T11:38:41.337Z,29.11
2023-03-07T11:39:44.004Z,31.88
2023-03-07T11:40:46.795Z,37.98
2023-03-07T11:41:49.460Z,35.13
2023-03-07T11:42:52.418Z,38.30
2023-03-07T11:43:55.293Z,35.13
2023-03-07T11:44:58.174Z,31.35
2023-03-07T11:46:01.066Z,34.94
2023-03-07T11:47:04.035Z,37.17
2023-03-07T11:48:06.807Z,34.29
2023-03-07T11:49:09.778Z,32.25
2023-03-07T11:50:12.768Z,36.71
2023-03-07T11:51:15.421Z,25.35
2023-03-07T11:52:18.191Z,32.03
2023-03-07T11:53:21.169Z,32.15
2023-03-07T11:54:24.050Z,31.93
2023-03-07T11:55:26.944Z,38.23
2023-03-07T11:56:29.913Z,31.49
2023-03-07T11:57:32.667Z,36.02
2023-03-07T11:58:35.440Z,38.40
2023-03-07T11:59:38.320Z,34.69
2023-03-07T12:00:41.086Z,33.93
2023-03-07T12:01:43.972Z,36.15
2023-03-07T12:02:46.963Z,35.80
2023-03-07T12:03:49.617Z,37.61
2023-03-07T12:04:52.175Z,37.77
2023-03-07T12:05:54.892Z,35.14
2023-03-07T12:06:57.517Z,31.76
2023-03-07T12:08:00.124Z,27.48
2023-03-07T12:09:03.071Z,32.45
2023-03-07T12:10:07.773Z,28.87
2023-03-07T12:11:10.552Z,32.19
2023-03-07T12:12:13.321Z,34.72
2023-03-07T12:13:16.299Z,30.36
2023-03-07T12:14:19.071Z,33.57
2023-03-07T12:15:21.752Z,31.25
2023-03-07T12:16:24.634Z,29.24
2023-03-07T12:17:27.593Z,29.07
2023-03-07T12:18:30.516Z,32.53
2023-03-07T12:19:33.342Z,35.52
2023-03-07T12:20:36.441Z,40.85
2023-03-07T12:21:39.201Z,33.62
2023-03-07T12:22:42.081Z,33.81
2023-03-07T12:23:44.863Z,30.48
2023-03-07T12:24:47.621Z,34.89
2023-03-07T12:25:50.511Z,33.27
2023-03-07T12:26:53.376Z,35.57
2023-03-07T12:27:56.254Z,32.25
2023-03-07T12:28:59.121Z,29.00
2023-03-07T12:30:01.999Z,31.08
2023-03-07T12:31:04.985Z,33.75
2023-03-07T12:32:08.071Z,33.27
2023-03-07T12:33:11.134Z,30.85
2023-03-07T12:34:13.898Z,34.83
2023-03-07T12:35:16.873Z,31.49
2023-03-07T12:36:19.794Z,31.10
2023-03-07T12:37:22.694Z,28.19
2023-03-07T12:38:25.500Z,30.00
2023-03-07T12:39:28.381Z,29.20
2023-03-07T12:40:31.043Z,30.50
2023-03-07T12:41:36.760Z,36.18
2023-03-07T12:42:39.661Z,29.11
2023-03-07T12:43:42.536Z,29.25
2023-03-07T12:44:45.225Z,32.53
2023-03-07T12:45:47.962Z,28.31
2023-03-07T12:46:50.651Z,28.95
2023-03-07T12:47:53.315Z,27.01
2023-03-07T12:48:55.986Z,24.28
2023-03-07T12:49:58.662Z,29.63
2023-03-07T12:51:01.239Z,26.52
2023-03-07T12:52:03.996Z,28.79
2023-03-07T12:53:06.710Z,24.12
2023-03-07T12:54:09.329Z,24.35
2023-03-07T12:55:12.623Z,22.62
2023-03-07T12:56:15.441Z,28.41
2023-03-07T12:57:18.267Z,26.72
2023-03-07T12:58:21.048Z,28.25
2023-03-07T12:59:25.038Z,33.08
2023-03-07T13:00:27.937Z,25.06
2023-03-07T13:01:30.734Z,25.05
2023-03-07T13:02:33.492Z,26.79
2023-03-07T13:03:36.543Z,26.41
2023-03-07T13:04:39.198Z,25.24
2023-03-07T13:05:41.992Z,21.16
2023-03-07T13:06:44.778Z,21.15
2023-03-07T13:07:47.424Z,27.93
2023-03-07T13:08:50.292Z,26.96
2023-03-07T13:09:53.217Z,27.05
2023-03-07T13:10:56.145Z,21.92
2023-03-07T13:11:59.030Z,22.76
2023-03-07T13:13:01.805Z,26.45
2023-03-07T13:14:04.699Z,20.76
2023-03-07T13:15:07.454Z,17.73
2023-03-07T13:16:10.497Z,21.62
2023-03-07T13:17:14.935Z,19.91
2023-03-07T13:18:17.671Z,21.13
2023-03-07T13:19:20.483Z,18.06
2023-03-07T13:20:23.344Z,17.21
2023-03-07T13:21:26.130Z,19.98
2023-03-07T13:22:29.013Z,15.28
2023-03-07T13:23:31.824Z,17.92
2023-03-07T13:24:34.660Z,15.78
2023-03-07T13:25:37.639Z,18.68
2023-03-07T13:26:40.198Z,17.29
2023-03-07T13:27:43.065Z,16.03
2023-03-07T13:28:45.958Z,15.55
2023-03-07T13:29:48.930Z,14.27
2023-03-07T13:30:51.666Z,12.92
2023-03-07T13:31:54.556Z,12.09
2023-03-07T13:32:57.563Z,12.65
2023-03-07T13:34:00.421Z,13.75
2023-03-07T13:35:03.392Z,13.32
2023-03-07T13:36:06.467Z,9.52
2023-03-07T13:37:09.448Z,7.86
2023-03-07T13:38:12.323Z,11.28
2023-03-07T13:39:15.105Z,11.77
2023-03-07T13:40:18.176Z,13.47
2023-03-07T13:41:21.128Z,11.47
2023-03-07T13:42:23.916Z,10.63
2023-03-07T13:43:28.256Z,11.34
2023-03-07T13:44:30.907Z,11.79
2023-03-07T13:45:33.776Z,15.45
2023-03-07T13:46:36.545Z,13.40
2023-03-07T13:47:39.213Z,15.15
2023-03-07T13:48:41.798Z,12.59
2023-03-07T13:49:44.406Z,11.17
2023-03-07T13:50:47.012Z,6.96
2023-03-07T13:51:49.591Z,10.82
2023-03-07T13:52:52.171Z,10.59
2023-03-07T13:53:54.718Z,7.56
2023-03-07T13:54:57.384Z,12.20
2023-03-07T13:56:00.383Z,10.83
2023-03-07T13:57:03.018Z,11.00
2023-03-07T13:58:05.443Z,13.78
2023-03-07T13:59:07.879Z,10.02
2023-03-07T14:00:10.356Z,10.50